Time;durP1;ratioP1;P1;durP2;ratioP2;P2;SDS_P1;SDS_P2;PMS_P1;PMS_P2;Temp;Humidity;BMP_temperature;BMP_pressure;BME280_temperature;BME280_humidity;BME280_pressure;Samples;Min_cycle;Max_cycle;Signal;HPM_P1;HPM_P2
2022/06/05 00:00:47;;;;;;;28.20;18.73;;;;;;;22.03;91.20;94928.34;5103854;28;20685;-80
2022/06/05 00:03:30;;;;;;;26.98;15.43;;;;;;;21.98;91.12;94928.41;5103948;28;20211;-80
2022/06/05 00:06:15;;;;;;;23.67;16.45;;;;;;;21.98;91.05;94926.56;5111420;28;20867;-81
2022/06/05 00:09:06;;;;;;;24.13;17.00;;;;;;;21.93;91.44;94925.81;5106956;28;20232;-82
2022/06/05 00:11:48;;;;;;;28.13;16.77;;;;;;;21.95;91.20;94928.97;5111269;28;20251;-79
2022/06/05 00:14:20;;;;;;;30.77;17.50;;;;;;;21.89;91.12;94925.59;5107789;28;20216;-80
2022/06/05 00:16:51;;;;;;;28.88;16.50;;;;;;;21.91;91.60;94931.38;5111364;28;20305;-82
2022/06/05 00:19:21;;;;;;;30.95;16.52;;;;;;;21.90;91.16;94913.16;5104916;28;20287;-81
2022/06/05 00:21:55;;;;;;;32.28;16.20;;;;;;;21.91;91.51;94920.78;5101172;28;20221;-81
2022/06/05 00:24:26;;;;;;;24.98;14.48;;;;;;;21.89;91.66;94919.50;5106617;28;20204;-81
2022/06/05 00:27:04;;;;;;;28.13;13.75;;;;;;;21.87;90.98;94921.63;5107029;28;20200;-81
2022/06/05 00:29:53;;;;;;;23.45;13.40;;;;;;;21.83;91.55;94917.94;5101373;28;20214;-81
2022/06/05 00:32:31;;;;;;;22.50;11.68;;;;;;;21.79;90.84;94933.59;5099560;28;20212;-82
2022/06/05 00:35:00;;;;;;;19.55;10.32;;;;;;;21.78;90.47;94937.34;5107369;28;20235;-83
2022/06/05 00:37:56;;;;;;;20.15;10.27;;;;;;;21.75;90.67;94942.38;5098205;28;20366;-80
2022/06/05 00:40:39;;;;;;;31.27;10.55;;;;;;;21.68;91.78;94937.41;5107590;28;20581;-80
2022/06/05 00:43:17;;;;;;;15.32;9.10;;;;;;;21.69;91.12;94946.94;5097563;28;20210;-81
2022/06/05 00:45:50;;;;;;;15.68;8.48;;;;;;;21.59;91.48;94935.69;5106659;28;20279;-81
2022/06/05 00:48:21;;;;;;;15.27;9.27;;;;;;;21.50;91.09;94932.81;5110174;28;20261;-80
2022/06/05 00:50:53;;;;;;;17.15;9.50;;;;;;;21.27;92.71;94926.41;5105369;28;20216;-80
2022/06/05 00:53:28;;;;;;;16.15;9.07;;;;;;;21.11;93.80;94924.19;5106541;28;20204;-80
2022/06/05 00:56:02;;;;;;;14.80;8.90;;;;;;;20.99;95.49;94921.88;5104208;28;20310;-82
2022/06/05 00:58:33;;;;;;;16.52;9.13;;;;;;;21.00;97.14;94928.75;5105129;28;20199;-83
2022/06/05 01:01:09;;;;;;;18.77;9.15;;;;;;;21.06;96.99;94924.19;5102609;28;20200;-80
2022/06/05 01:03:42;;;;;;;17.13;8.85;;;;;;;21.14;97.04;94939.50;5104386;28;20199;-80
2022/06/05 01:06:14;;;;;;;13.65;8.55;;;;;;;21.16;96.76;94927.56;5104442;28;20197;-81
2022/06/05 01:08:44;;;;;;;17.83;8.52;;;;;;;21.10;97.32;94922.59;5101329;28;20779;-81
2022/06/05 01:11:24;;;;;;;20.40;9.70;;;;;;;21.06;97.41;94924.19;5110079;28;20251;-80
2022/06/05 01:14:07;;;;;;;15.80;9.27;;;;;;;21.00;98.56;94926.09;5109093;28;20200;-81
2022/06/05 01:16:50;;;;;;;13.30;9.40;;;;;;;20.89;98.78;94917.44;5098844;28;20247;-81
2022/06/05 01:19:34;;;;;;;14.55;9.18;;;;;;;20.85;99.56;94926.19;5102264;28;20231;-82
2022/06/05 01:22:43;;;;;;;18.13;8.75;;;;;;;20.75;100.00;94927.03;5108917;28;20283;-82
2022/06/05 01:25:56;;;;;;;15.98;9.82;;;;;;;20.78;100.00;94925.69;5101265;28;20208;-79
2022/06/05 01:28:33;;;;;;;14.48;8.45;;;;;;;20.73;100.00;94923.09;5097488;28;20196;-82
2022/06/05 01:31:12;;;;;;;14.35;9.10;;;;;;;20.70;100.00;94916.50;5110528;28;20210;-82
2022/06/05 01:33:54;;;;;;;11.88;8.57;;;;;;;20.73;100.00;94918.63;5093464;28;20200;-82
2022/06/05 01:36:31;;;;;;;15.50;8.75;;;;;;;20.63;100.00;94909.97;5100075;28;20268;-82
2022/06/05 01:39:07;;;;;;;15.55;9.50;;;;;;;20.59;100.00;94922.94;5109976;28;20200;-83
2022/06/05 01:41:44;;;;;;;13.55;9.07;;;;;;;20.52;100.00;94913.75;5109907;28;20274;-81
2022/06/05 01:44:23;;;;;;;16.63;9.65;;;;;;;20.46;100.00;94915.59;5107546;28;20203;-82
2022/06/05 01:46:56;;;;;;;17.38;9.27;;;;;;;20.53;100.00;94924.03;5107952;28;20191;-81
2022/06/05 01:49:36;;;;;;;15.80;9.00;;;;;;;20.35;100.00;94920.16;5108194;28;20231;-83
2022/06/05 01:52:13;;;;;;;29.48;10.48;;;;;;;20.31;100.00;94919.13;5101672;28;20264;-83
2022/06/05 01:54:54;;;;;;;21.23;9.77;;;;;;;20.30;100.00;94914.09;5107766;28;20207;-83
2022/06/05 01:57:27;;;;;;;15.35;8.73;;;;;;;20.26;100.00;94921.78;5108557;28;20200;-83
2022/06/05 02:00:10;;;;;;;16.60;8.80;;;;;;;20.38;100.00;94922.25;5105695;28;20196;-83
2022/06/05 02:02:47;;;;;;;16.60;9.20;;;;;;;20.50;100.00;94914.00;5095869;28;20591;-83
2022/06/05 02:05:27;;;;;;;23.25;9.10;;;;;;;20.30;100.00;94885.06;5105142;28;20211;-81
2022/06/05 02:08:04;;;;;;;28.23;9.88;;;;;;;20.34;100.00;94908.03;5106522;28;20332;-81
2022/06/05 02:10:42;;;;;;;22.20;9.27;;;;;;;20.38;100.00;94906.41;5109027;28;20294;-81
2022/06/05 02:13:15;;;;;;;18.70;9.07;;;;;;;20.29;100.00;94891.41;5112439;28;20200;-80
2022/06/05 02:15:58;;;;;;;16.33;9.23;;;;;;;20.38;100.00;94911.69;5105883;28;20714;-81
2022/06/05 02:18:31;;;;;;;17.63;9.40;;;;;;;20.43;100.00;94912.72;5109892;28;20203;-81
2022/06/05 02:21:05;;;;;;;12.13;8.52;;;;;;;20.38;100.00;94908.25;5109182;28;20579;-84
2022/06/05 02:23:40;;;;;;;19.52;9.48;;;;;;;20.44;100.00;94912.44;5109091;28;20204;-82
2022/06/05 02:26:12;;;;;;;16.90;9.32;;;;;;;20.43;100.00;94904.81;5099020;28;20257;-78
2022/06/05 02:28:46;;;;;;;15.65;8.40;;;;;;;20.44;100.00;94914.28;5097037;28;20640;-78
2022/06/05 02:31:33;;;;;;;17.17;8.77;;;;;;;20.38;100.00;94908.25;5107377;28;20273;-79
2022/06/05 02:34:16;;;;;;;12.93;8.95;;;;;;;20.29;100.00;94905.38;5103416;28;20284;-81
2022/06/05 02:36:59;;;;;;;15.10;9.25;;;;;;;20.27;100.00;94893.53;5108719;28;20609;-81
2022/06/05 02:39:42;;;;;;;14.43;8.60;;;;;;;20.32;100.00;94898.78;5093206;28;20211;-82
2022/06/05 02:42:27;;;;;;;19.50;9.65;;;;;;;20.36;100.00;94905.91;5101756;28;20260;-79
2022/06/05 02:45:11;;;;;;;13.00;9.20;;;;;;;20.33;100.00;94895.88;5103062;28;20287;-78
2022/06/05 02:47:52;;;;;;;16.17;10.00;;;;;;;20.34;100.00;94894.03;5107355;28;20702;-79
2022/06/05 02:50:33;;;;;;;15.18;9.30;;;;;;;20.34;100.00;94894.81;5098939;28;20200;-79
2022/06/05 02:53:07;;;;;;;11.82;9.00;;;;;;;20.30;100.00;94895.63;5105424;28;20200;-80
2022/06/05 02:55:40;;;;;;;15.73;9.45;;;;;;;20.32;100.00;94894.28;5110109;28;20593;-80
2022/06/05 02:58:12;;;;;;;17.75;9.98;;;;;;;20.33;100.00;94889.81;5109098;28;20207;-80
2022/06/05 03:03:27;;;;;;;16.85;10.10;;;;;;;20.30;100.00;94892.97;5102850;28;20680;-79
2022/06/05 03:03:40;;;;;;;15.40;9.57;;;;;;;20.26;100.00;94887.44;5106752;28;20261;-80
2022/06/05 03:06:12;;;;;;;16.70;10.27;;;;;;;20.27;100.00;94899.59;5107192;28;20192;-79
2022/06/05 03:08:41;;;;;;;13.68;9.13;;;;;;;20.26;100.00;94895.38;5106566;28;20232;-81
2022/06/05 03:11:12;;;;;;;18.77;9.80;;;;;;;20.27;100.00;94891.69;5103660;28;20647;-81
2022/06/05 03:13:45;;;;;;;18.40;9.68;;;;;;;20.28;100.00;94901.19;5105957;28;20192;-80
2022/06/05 03:16:17;;;;;;;17.50;9.57;;;;;;;20.25;100.00;94888.53;5099958;28;20229;-79
2022/06/05 03:18:54;;;;;;;19.35;10.52;;;;;;;20.29;100.00;94894.81;5105564;28;20287;-80
2022/06/05 03:21:27;;;;;;;20.77;10.48;;;;;;;20.31;100.00;94902.50;5095867;28;20195;-79
2022/06/05 03:23:57;;;;;;;16.45;10.07;;;;;;;20.34;100.00;94904.59;5106720;28;20196;-81
2022/06/05 03:26:28;;;;;;;18.77;9.98;;;;;;;20.33;100.00;94903.78;5109146;28;20231;-83
2022/06/05 03:29:00;;;;;;;15.65;10.10;;;;;;;20.33;100.00;94900.34;5110817;28;20204;-82
2022/06/05 03:31:31;;;;;;;20.80;10.23;;;;;;;20.44;100.00;94906.38;5110345;28;20204;-82
2022/06/05 03:34:09;;;;;;;15.18;9.25;;;;;;;20.43;100.00;94908.25;5107153;28;20570;-84
2022/06/05 03:36:46;;;;;;;22.55;10.18;;;;;;;20.47;100.00;94916.38;5101226;28;20255;-83
2022/06/05 03:39:20;;;;;;;19.15;10.05;;;;;;;20.44;100.00;94919.56;5103043;28;20287;-80
2022/06/05 03:41:51;;;;;;;22.48;9.90;;;;;;;20.46;100.00;94917.47;5102781;28;20211;-81
2022/06/05 03:44:26;;;;;;;23.50;11.05;;;;;;;20.45;100.00;94921.16;5105014;28;20658;-80
2022/06/05 03:46:59;;;;;;;18.30;10.70;;;;;;;20.43;100.00;94913.53;5107766;28;20731;-81
2022/06/05 03:49:36;;;;;;;17.27;9.68;;;;;;;20.46;100.00;94920.88;5109039;28;20204;-82
2022/06/05 03:52:10;;;;;;;17.77;9.82;;;;;;;20.48;100.00;94921.41;5105684;28;20199;-82
2022/06/05 03:54:45;;;;;;;13.35;9.88;;;;;;;20.51;100.00;94928.78;5105101;28;20202;-83
2022/06/05 03:57:15;;;;;;;14.25;9.38;;;;;;;20.52;100.00;94932.22;5095926;28;20234;-84
2022/06/05 03:59:49;;;;;;;16.05;10.60;;;;;;;20.49;100.00;94933.53;5098157;28;20264;-84
2022/06/05 04:02:19;;;;;;;16.88;9.90;;;;;;;20.55;99.70;94937.72;5100224;28;20206;-84
2022/06/05 04:04:53;;;;;;;11.95;9.20;;;;;;;20.54;99.28;94938.81;5101943;28;20208;-84
2022/06/05 04:07:30;;;;;;;18.65;10.05;;;;;;;20.57;98.83;94933.00;5105503;28;20198;-83
2022/06/05 04:10:05;;;;;;;17.30;9.98;;;;;;;20.51;99.18;94931.44;5098043;28;20288;-83
2022/06/05 04:12:37;;;;;;;15.88;9.95;;;;;;;20.56;99.29;94935.88;5106003;28;20204;-83
2022/06/05 04:15:11;;;;;;;15.40;10.18;;;;;;;20.56;98.65;94927.97;5102686;28;20250;-83
2022/06/05 04:17:44;;;;;;;15.10;10.43;;;;;;;20.54;98.83;94922.97;5099687;28;20745;-83
2022/06/05 04:20:18;;;;;;;18.38;10.27;;;;;;;20.68;98.19;94931.84;5105476;28;20211;-83
2022/06/05 04:22:49;;;;;;;20.63;10.25;;;;;;;20.73;97.96;94928.38;5101216;28;20192;-83
2022/06/05 04:25:22;;;;;;;15.48;10.60;;;;;;;20.71;97.49;94918.09;5103520;28;20204;-82
2022/06/05 04:27:55;;;;;;;13.93;9.90;;;;;;;20.77;97.32;94921.50;5104919;28;20212;-83
2022/06/05 04:30:29;;;;;;;18.25;10.50;;;;;;;20.81;97.34;94923.31;5105191;28;20202;-82
2022/06/05 04:33:03;;;;;;;17.42;9.90;;;;;;;20.74;97.50;94914.91;5105370;28;20204;-83
2022/06/05 04:35:37;;;;;;;21.02;10.50;;;;;;;20.83;96.77;94918.56;5097853;28;20279;-84
2022/06/05 04:38:11;;;;;;;16.85;10.52;;;;;;;20.85;97.03;94920.91;5105062;28;20733;-83
2022/06/05 04:40:45;;;;;;;14.70;10.25;;;;;;;20.89;97.28;94912.16;5103145;28;20199;-82
2022/06/05 04:43:19;;;;;;;22.15;10.70;;;;;;;20.97;97.04;94907.34;5108088;28;20204;-82
2022/06/05 04:45:51;;;;;;;16.30;10.40;;;;;;;20.98;97.38;94907.06;5107277;28;20288;-79
2022/06/05 04:48:25;;;;;;;15.95;10.50;;;;;;;20.98;97.50;94912.34;5108468;28;20259;-79
2022/06/05 04:51:01;;;;;;;19.55;11.50;;;;;;;21.06;97.41;94903.84;5108665;28;20583;-79
2022/06/05 04:53:35;;;;;;;18.15;10.23;;;;;;;21.03;97.10;94896.47;5108205;28;20686;-83
2022/06/05 04:56:09;;;;;;;18.65;10.25;;;;;;;21.09;96.63;94908.63;5102885;28;20227;-84
2022/06/05 04:58:41;;;;;;;18.40;10.40;;;;;;;21.17;96.04;94915.16;5108245;28;20308;-83
2022/06/05 05:01:17;;;;;;;21.08;10.25;;;;;;;21.15;96.59;94906.72;5108666;28;20694;-83
2022/06/05 05:03:48;;;;;;;20.75;11.10;;;;;;;21.20;96.71;94918.03;5107460;28;20308;-83
2022/06/05 05:06:24;;;;;;;17.00;11.15;;;;;;;21.16;96.67;94919.63;5102595;28;20211;-82
2022/06/05 05:08:55;;;;;;;19.67;11.07;;;;;;;21.09;97.36;94924.47;5110327;28;20292;-81
2022/06/05 05:11:23;;;;;;;20.13;10.70;;;;;;;21.22;96.64;94915.88;5102682;28;20204;-82
2022/06/05 05:13:57;;;;;;;20.95;10.35;;;;;;;21.29;96.46;94912.94;5099561;28;20196;-79
2022/06/05 05:16:29;;;;;;;19.25;10.38;;;;;;;21.36;96.52;94922.13;5102121;28;20720;-79
2022/06/05 05:19:05;;;;;;;17.48;10.20;;;;;;;21.38;96.43;94927.13;5100686;28;20196;-78
2022/06/05 05:21:37;;;;;;;16.15;10.93;;;;;;;21.41;96.17;94939.81;5096402;28;20665;-78
2022/06/05 05:24:08;;;;;;;18.98;10.70;;;;;;;21.47;96.39;94941.34;5098566;28;20198;-78
2022/06/05 05:26:48;;;;;;;15.15;10.45;;;;;;;21.41;96.58;94930.00;5098635;28;20199;-79
2022/06/05 05:29:21;;;;;;;20.10;11.65;;;;;;;21.48;96.15;94938.41;5098051;28;20204;-79
2022/06/05 05:31:55;;;;;;;68.72;13.77;;;;;;;21.55;96.27;94946.03;5099904;28;20288;-79
2022/06/05 05:34:29;;;;;;;76.25;13.65;;;;;;;21.57;96.37;94938.59;5100923;28;20200;-78
2022/06/05 05:37:03;;;;;;;43.03;12.90;;;;;;;21.67;96.03;94946.44;5100595;28;20245;-79
2022/06/05 05:42:21;;;;;;;23.90;12.35;;;;;;;21.88;96.06;94942.53;5098425;28;20256;-79
2022/06/05 05:44:56;;;;;;;24.20;11.63;;;;;;;22.00;95.04;94939.50;5097218;28;20193;-81
2022/06/05 05:47:31;;;;;;;24.38;12.15;;;;;;;21.92;95.51;94935.63;5097236;28;20191;-81
2022/06/05 05:50:07;;;;;;;18.25;12.65;;;;;;;21.88;96.19;94929.31;5102140;28;20202;-82
2022/06/05 05:52:40;;;;;;;19.75;12.38;;;;;;;21.88;95.96;94921.34;5108350;28;20203;-82
2022/06/05 05:55:15;;;;;;;17.63;11.82;;;;;;;21.96;96.67;94919.97;5097456;28;20209;-83
2022/06/05 05:57:54;;;;;;;27.00;11.88;;;;;;;22.08;96.35;94920.34;5103466;28;20851;-83
2022/06/05 06:00:26;;;;;;;20.95;13.02;;;;;;;22.24;95.90;94939.50;5099719;28;20208;-81
2022/06/05 06:02:59;;;;;;;19.27;11.65;;;;;;;22.31;95.62;94934.66;5107927;28;20237;-75
2022/06/05 06:05:34;;;;;;;19.33;11.93;;;;;;;22.36;95.08;94935.38;5106191;28;20204;-75
2022/06/05 06:08:08;;;;;;;21.13;12.63;;;;;;;22.43;94.84;94937.66;5107770;28;20611;-75
2022/06/05 06:10:42;;;;;;;23.45;11.98;;;;;;;22.52;94.36;94939.38;5107162;28;20298;-75
2022/06/05 06:13:15;;;;;;;19.08;11.82;;;;;;;22.59;93.76;94939.03;5108217;28;20638;-74
2022/06/05 06:15:49;;;;;;;23.42;12.45;;;;;;;22.72;92.85;94954.25;5101255;28;20200;-74
2022/06/05 06:18:20;;;;;;;22.33;11.85;;;;;;;22.78;92.91;94949.66;5097283;28;20324;-75
2022/06/05 06:20:52;;;;;;;19.38;11.98;;;;;;;22.90;92.06;94942.06;5106662;28;20257;-75
2022/06/05 06:23:29;;;;;;;19.05;11.48;;;;;;;22.96;91.48;94944.38;5105854;28;20208;-75
2022/06/05 06:26:02;;;;;;;15.60;11.27;;;;;;;23.02;90.12;94942.44;5105852;28;20388;-76
2022/06/05 06:28:35;;;;;;;15.45;11.45;;;;;;;23.08;90.54;94949.25;5107214;28;20326;-75
2022/06/05 06:31:11;;;;;;;21.38;11.30;;;;;;;23.17;90.04;94950.16;5103798;28;20216;-74
2022/06/05 06:33:40;;;;;;;22.02;12.05;;;;;;;23.24;89.72;94941.81;5107430;28;20681;-74
2022/06/05 06:36:13;;;;;;;18.45;12.13;;;;;;;23.38;88.82;94943.47;5105895;28;20293;-74
2022/06/05 06:38:47;;;;;;;19.88;11.73;;;;;;;23.51;88.41;94941.94;5106055;28;20196;-75
2022/06/05 06:41:16;;;;;;;18.95;12.43;;;;;;;23.43;89.77;94937.31;5106076;28;20199;-75
2022/06/05 06:43:49;;;;;;;18.00;11.88;;;;;;;23.49;90.00;94936.16;5105347;28;20251;-76
2022/06/05 06:46:21;;;;;;;17.05;11.88;;;;;;;23.54;90.43;94936.84;5105413;28;20302;-75
2022/06/05 06:48:51;;;;;;;15.38;11.38;;;;;;;23.58;89.92;94937.81;5105694;28;20214;-76
2022/06/05 06:51:23;;;;;;;15.95;10.90;;;;;;;23.55;89.88;94935.75;5104936;28;20674;-77
2022/06/05 06:53:55;;;;;;;17.15;10.57;;;;;;;23.55;90.33;94941.06;5107772;28;20264;-77
2022/06/05 06:56:27;;;;;;;16.48;10.43;;;;;;;23.56;90.24;94934.69;5100718;28;20195;-78
2022/06/05 06:59:00;;;;;;;20.15;10.90;;;;;;;23.69;90.63;94936.56;5098503;28;20294;-80
2022/06/05 07:01:34;;;;;;;14.80;8.98;;;;;;;23.79;93.47;94917.00;5097766;28;20881;-81
2022/06/05 07:04:06;;;;;;;11.52;10.20;;;;;;;24.04;87.83;94929.03;5101412;28;20215;-81
2022/06/05 07:06:36;;;;;;;19.15;9.77;;;;;;;24.04;86.92;94924.50;5098200;28;20196;-81
2022/06/05 07:09:14;;;;;;;17.27;9.95;;;;;;;24.15;85.28;94930.44;5097481;28;20227;-80
2022/06/05 07:11:45;;;;;;;13.43;10.00;;;;;;;24.16;84.90;94927.47;5094735;28;20192;-81
2022/06/05 07:14:22;;;;;;;14.90;9.38;;;;;;;24.23;84.83;94932.41;5097919;28;21174;-79
2022/06/05 07:16:53;;;;;;;14.75;9.57;;;;;;;24.34;84.17;94932.97;5097440;28;20207;-82
2022/06/05 07:19:27;;;;;;;14.60;8.13;;;;;;;24.47;84.92;94932.19;5097813;28;20284;-80
2022/06/05 07:22:04;;;;;;;13.93;9.05;;;;;;;24.58;83.01;94939.66;5097677;28;20200;-81
2022/06/05 07:24:39;;;;;;;14.95;9.93;;;;;;;24.58;82.96;94926.34;5100267;28;20206;-79
2022/06/05 07:27:12;;;;;;;11.45;9.52;;;;;;;24.74;82.13;94932.13;5099204;28;20192;-80
2022/06/05 07:29:42;;;;;;;18.38;9.68;;;;;;;24.77;80.76;94926.19;5094730;28;20208;-81
2022/06/05 07:32:13;;;;;;;17.70;8.75;;;;;;;24.77;81.73;94921.66;5105686;28;20292;-81
2022/06/05 07:34:45;;;;;;;12.82;9.43;;;;;;;24.68;81.55;94918.16;5105030;28;20204;-81
2022/06/05 07:37:18;;;;;;;15.68;9.00;;;;;;;24.75;82.39;94915.88;5104818;28;20682;-81
2022/06/05 07:39:51;;;;;;;16.02;8.90;;;;;;;24.75;80.68;94929.19;5104169;28;20201;-79
2022/06/05 07:42:24;;;;;;;15.70;9.07;;;;;;;24.74;81.11;94924.13;5092435;28;21041;-78
2022/06/05 07:44:53;;;;;;;13.80;8.98;;;;;;;24.76;80.15;94917.44;5101268;28;20203;-80
2022/06/05 07:47:24;;;;;;;15.57;8.52;;;;;;;24.88;80.40;94916.16;5096461;28;20651;-81
2022/06/05 07:49:55;;;;;;;21.80;9.70;;;;;;;24.97;80.07;94922.31;5097039;28;20204;-80
2022/06/05 07:55:14;;;;;;;12.30;8.43;;;;;;;25.12;77.12;94901.47;5083121;28;20215;-78
2022/06/05 07:57:44;;;;;;;11.80;8.90;;;;;;;25.55;75.54;94907.09;5098141;28;20232;-78
2022/06/05 08:00:15;;;;;;;9.73;7.95;;;;;;;25.63;72.35;94906.34;5097395;28;20279;-80
2022/06/05 08:02:48;;;;;;;13.57;8.73;;;;;;;25.59;72.60;94907.28;5098167;28;20666;-80
2022/06/05 08:05:18;;;;;;;11.80;8.48;;;;;;;25.63;72.54;94913.53;5097227;28;20199;-80
2022/06/05 08:07:48;;;;;;;12.88;8.43;;;;;;;25.81;73.16;94909.88;5096080;28;20319;-79
2022/06/05 08:10:20;;;;;;;15.13;7.90;;;;;;;26.00;71.12;94909.66;5101452;28;20572;-81
2022/06/05 08:12:50;;;;;;;9.52;7.10;;;;;;;26.16;70.45;94905.50;5102673;28;20196;-78
2022/06/05 08:15:19;;;;;;;13.02;8.15;;;;;;;26.34;68.57;94909.78;5099679;28;20195;-80
2022/06/05 08:17:50;;;;;;;12.02;8.38;;;;;;;26.28;68.18;94916.34;5096510;28;20727;-82
2022/06/05 08:20:20;;;;;;;13.02;7.25;;;;;;;26.25;66.34;94903.63;5101794;28;20191;-82
2022/06/05 08:22:50;;;;;;;11.65;7.38;;;;;;;26.16;68.47;94897.50;5105691;28;20268;-83
2022/06/05 08:25:22;;;;;;;12.75;7.63;;;;;;;26.20;68.75;94901.91;5110295;28;20299;-82
2022/06/05 08:27:53;;;;;;;12.63;7.80;;;;;;;26.30;67.12;94901.63;5110322;28;20206;-81
2022/06/05 08:30:21;;;;;;;12.75;7.45;;;;;;;26.43;64.17;94898.06;5112231;28;20231;-82
2022/06/05 08:32:53;;;;;;;10.93;7.20;;;;;;;26.41;64.90;94902.88;5113213;28;20208;-81
2022/06/05 08:35:27;;;;;;;10.70;7.10;;;;;;;26.42;65.57;94893.81;5109696;28;20681;-81
2022/06/05 08:43:59;;;;;;;12.02;6.47;;;;;;;26.65;63.01;94907.78;5110111;28;20629;-77
2022/06/05 08:46:32;;;;;;;9.73;6.55;;;;;;;26.49;63.22;94896.78;5106775;28;20220;-86
2022/06/05 08:49:05;;;;;;;13.38;6.82;;;;;;;26.36;64.52;94884.38;5096713;28;20216;-87
2022/06/05 08:51:50;;;;;;;12.43;5.95;;;;;;;26.57;64.74;94899.78;5111263;28;20200;-88
2022/06/05 08:54:23;;;;;;;14.50;5.75;;;;;;;26.61;59.52;94900.75;5106581;28;20204;-88
2022/06/05 08:57:05;;;;;;;8.40;5.07;;;;;;;26.56;58.30;94896.31;5105803;28;20270;-88
2022/06/05 08:59:43;;;;;;;20.58;5.97;;;;;;;26.63;60.03;94887.88;5099655;28;20200;-87
2022/06/05 09:02:25;;;;;;;7.50;5.30;;;;;;;26.75;55.18;94894.16;5112685;28;20674;-74
2022/06/05 09:05:01;;;;;;;10.00;5.10;;;;;;;26.76;56.19;94893.03;5102117;28;20205;-83
2022/06/05 09:07:37;;;;;;;13.52;5.25;;;;;;;26.64;56.89;94881.44;5096783;28;20288;-87
2022/06/05 09:10:15;;;;;;;8.68;5.03;;;;;;;26.73;58.23;94892.88;5098771;28;20279;-88
2022/06/05 09:12:51;;;;;;;7.78;4.82;;;;;;;26.87;57.56;94890.88;5109735;28;20204;-88
2022/06/05 09:15:29;;;;;;;13.70;4.80;;;;;;;26.94;53.72;94889.31;5109636;28;20765;-91
2022/06/05 09:18:00;;;;;;;11.75;4.88;;;;;;;26.89;54.36;94880.69;5121041;28;20227;-89
2022/06/05 09:20:44;;;;;;;9.55;4.57;;;;;;;26.90;54.51;94877.69;5116995;28;20207;-89
2022/06/05 09:23:21;;;;;;;11.68;5.43;;;;;;;27.02;55.05;94888.53;5115239;28;20670;-88
2022/06/05 09:25:59;;;;;;;12.02;4.55;;;;;;;27.00;52.52;94864.03;5106857;28;20276;-89
2022/06/05 09:28:50;;;;;;;11.35;5.30;;;;;;;27.21;53.81;94872.19;5112505;28;20303;-89
2022/06/05 09:31:56;;;;;;;9.57;4.72;;;;;;;27.27;50.80;94859.44;5106772;28;20204;-89
2022/06/05 09:34:31;;;;;;;7.82;4.40;;;;;;;27.50;50.76;94863.50;5077733;28;20295;-85
2022/06/05 09:37:06;;;;;;;7.55;4.30;;;;;;;27.63;49.71;94862.50;5103764;28;20195;-83
2022/06/05 09:39:40;;;;;;;6.10;4.18;;;;;;;27.78;49.06;94874.56;5109896;28;20253;-84
2022/06/05 09:42:25;;;;;;;10.90;4.30;;;;;;;27.70;49.59;94875.38;5105129;28;20196;-85
2022/06/05 09:45:07;;;;;;;13.63;5.05;;;;;;;27.76;47.94;94864.19;5108339;28;20196;-85
2022/06/05 09:47:40;;;;;;;9.52;4.28;;;;;;;27.92;48.75;94875.91;5105587;28;20192;-84
2022/06/05 09:50:20;;;;;;;7.07;4.60;;;;;;;27.97;49.14;94867.72;5094315;28;20208;-88
2022/06/05 09:52:48;;;;;;;9.82;4.00;;;;;;;28.21;48.38;94869.03;5104521;28;20201;-83
2022/06/05 09:55:20;;;;;;;7.35;4.50;;;;;;;28.25;47.63;94867.28;5110090;28;20762;-82
2022/06/05 10:00:51;;;;;;;9.02;4.85;;;;;;;28.39;46.85;94868.63;5104512;28;20207;-83
2022/06/05 10:03:22;;;;;;;10.13;4.20;;;;;;;28.34;47.75;94862.69;5107637;28;20214;-87
2022/06/05 10:06:17;;;;;;;8.30;4.43;;;;;;;28.50;47.05;94851.06;5101728;28;20208;-85
2022/06/05 10:08:48;;;;;;;8.15;4.57;;;;;;;28.73;46.13;94859.59;5103512;28;20223;-84
2022/06/05 10:11:33;;;;;;;7.95;4.32;;;;;;;28.78;47.60;94850.56;5106689;28;20202;-84
2022/06/05 10:14:21;;;;;;;7.03;4.22;;;;;;;29.00;45.04;94852.91;5098332;28;20227;-84
2022/06/05 10:17:01;;;;;;;10.90;4.85;;;;;;;28.93;46.13;94858.00;5105930;28;20591;-85
2022/06/05 10:19:46;;;;;;;7.25;4.70;;;;;;;28.87;47.23;94852.06;5104005;28;20204;-84
2022/06/05 10:22:32;;;;;;;10.50;4.72;;;;;;;29.16;46.99;94851.97;5108483;28;20196;-84
2022/06/05 10:25:16;;;;;;;10.43;4.40;;;;;;;29.55;45.35;94852.53;5108418;28;20223;-84
2022/06/05 10:27:54;;;;;;;10.00;5.13;;;;;;;29.58;44.36;94855.31;5109081;28;20216;-85
2022/06/05 10:30:33;;;;;;;12.50;5.00;;;;;;;29.62;44.43;94848.19;5092907;28;20639;-84
2022/06/05 10:33:17;;;;;;;8.77;4.72;;;;;;;29.63;43.69;94836.38;5099095;28;20654;-86
2022/06/05 10:35:57;;;;;;;10.13;4.78;;;;;;;29.85;44.30;94845.91;5108255;28;20301;-84
2022/06/05 10:38:46;;;;;;;6.93;4.30;;;;;;;29.95;44.46;94840.09;5099842;28;20224;-83
2022/06/05 10:41:27;;;;;;;9.35;4.45;;;;;;;30.11;44.13;94835.63;5096553;28;20260;-88
2022/06/05 10:44:34;;;;;;;9.55;4.50;;;;;;;30.41;44.50;94830.03;5108533;28;20200;-84
2022/06/05 10:47:11;;;;;;;10.88;4.45;;;;;;;30.75;43.09;94826.78;5100390;28;20667;-80
2022/06/05 10:49:53;;;;;;;6.97;4.47;;;;;;;31.03;42.07;94837.56;5105801;28;20215;-83
2022/06/05 10:52:31;;;;;;;10.70;4.38;;;;;;;31.21;42.54;94825.38;5094709;28;20227;-84
2022/06/05 10:55:19;;;;;;;7.13;4.50;;;;;;;31.26;40.76;94828.59;5092204;28;20208;-84
2022/06/05 10:57:57;;;;;;;5.93;4.20;;;;;;;31.06;40.31;94829.59;5108729;28;20204;-83
2022/06/05 11:00:36;;;;;;;9.93;4.32;;;;;;;30.87;40.75;94827.53;5092048;28;20286;-86
2022/06/05 11:03:20;;;;;;;5.68;3.90;;;;;;;30.72;41.16;94822.88;5103720;28;20207;-85
2022/06/05 11:06:10;;;;;;;10.85;4.40;;;;;;;31.01;41.22;94827.19;5099810;28;20222;-85
2022/06/05 11:08:54;;;;;;;12.55;4.20;;;;;;;31.04;41.11;94817.66;5107135;28;20253;-89
2022/06/05 11:14:29;;;;;;;7.55;4.55;;;;;;;31.42;40.91;94825.97;5108588;28;20199;-86
2022/06/05 11:17:08;;;;;;;6.78;3.50;;;;;;;31.59;40.40;94819.50;5102349;28;20542;-85
2022/06/05 11:19:42;;;;;;;7.93;3.88;;;;;;;31.84;38.78;94805.50;5100226;28;20652;-84
2022/06/05 11:22:14;;;;;;;6.28;3.97;;;;;;;32.07;39.82;94821.81;5098800;28;20666;-80
2022/06/05 11:24:48;;;;;;;9.15;4.10;;;;;;;32.09;39.74;94800.75;5107179;28;20264;-83
2022/06/05 11:27:26;;;;;;;10.27;3.90;;;;;;;32.36;36.41;94815.16;5098891;28;20199;-84
2022/06/05 11:30:03;;;;;;;5.80;2.85;;;;;;;32.63;34.64;94825.03;5094921;28;20196;-83
2022/06/05 11:32:48;;;;;;;4.70;2.85;;;;;;;32.80;33.00;94805.75;5107075;28;20618;-80
2022/06/05 11:35:31;;;;;;;5.63;2.50;;;;;;;32.89;32.88;94813.63;5100793;28;20264;-84
2022/06/05 11:38:03;;;;;;;5.53;2.33;;;;;;;32.90;32.56;94817.88;5096405;28;20216;-86
2022/06/05 11:40:46;;;;;;;4.63;2.30;;;;;;;32.61;31.73;94816.53;5098251;28;20209;-84
2022/06/05 11:43:31;;;;;;;6.20;2.67;;;;;;;32.70;33.07;94805.53;5098870;28;20208;-82
2022/06/05 11:46:22;;;;;;;10.18;3.13;;;;;;;32.81;33.68;94806.53;5095385;28;20283;-86
2022/06/05 11:48:58;;;;;;;3.80;2.70;;;;;;;32.73;33.32;94810.97;5097338;28;20224;-80
2022/06/05 11:51:36;;;;;;;5.13;3.05;;;;;;;32.59;35.27;94808.00;5101015;28;20204;-82
2022/06/05 11:54:19;;;;;;;5.57;3.28;;;;;;;32.16;35.49;94800.13;5111823;28;20199;-84
2022/06/05 11:57:05;;;;;;;6.38;3.40;;;;;;;31.81;36.50;94800.84;5113622;28;20196;-84
2022/06/05 11:59:45;;;;;;;4.38;2.90;;;;;;;31.70;36.77;94799.81;5114684;28;20216;-84
2022/06/05 12:02:51;;;;;;;8.45;3.40;;;;;;;31.72;36.44;94802.91;5102266;28;20196;-85
2022/06/05 12:05:29;;;;;;;8.50;2.97;;;;;;;31.85;36.34;94800.91;5090118;28;20632;-85
2022/06/05 12:08:06;;;;;;;6.80;3.30;;;;;;;32.41;36.56;94806.84;5111224;28;20232;-84
2022/06/05 12:10:43;;;;;;;6.63;3.03;;;;;;;32.77;35.41;94798.38;5102828;28;20195;-83
2022/06/05 12:13:39;;;;;;;6.82;3.05;;;;;;;33.26;34.27;94803.16;5103271;28;20213;-81
2022/06/05 12:16:17;;;;;;;4.47;2.58;;;;;;;33.62;34.14;94800.75;5103659;28;20269;-82
2022/06/05 12:18:54;;;;;;;4.10;2.80;;;;;;;33.94;33.47;94801.25;5103934;28;20216;-84
2022/06/05 12:21:29;;;;;;;6.53;2.90;;;;;;;33.93;32.87;94802.41;5103294;28;20755;-83